createdAt,value
2017-03-24T00:01:20.195Z,0
2017-03-24T00:02:42.689Z,0
2017-03-24T00:04:05.142Z,0
2017-03-24T00:05:27.299Z,0
2017-03-24T00:06:49.721Z,0
2017-03-24T00:08:12.253Z,0
2017-03-24T00:09:34.096Z,0
2017-03-24T00:10:56.254Z,0
2017-03-24T00:12:18.338Z,0
2017-03-24T00:13:40.557Z,0
2017-03-24T00:15:02.823Z,0
2017-03-24T00:16:24.967Z,0
2017-03-24T00:17:47.699Z,0
2017-03-24T00:19:09.891Z,0
2017-03-24T00:20:31.619Z,0
2017-03-24T00:21:53.736Z,0
2017-03-24T00:23:45.035Z,0
2017-03-24T00:25:07.490Z,0
2017-03-24T00:26:29.926Z,0
2017-03-24T00:27:51.774Z,0
2017-03-24T00:29:13.840Z,0
2017-03-24T00:30:35.986Z,0
2017-03-24T00:31:57.190Z,0
2017-03-24T00:33:19.475Z,0
2017-03-24T00:34:42.106Z,0
2017-03-24T00:36:04.230Z,0
2017-03-24T00:37:25.728Z,0
2017-03-24T00:38:48.238Z,0
2017-03-24T00:40:11.015Z,0
2017-03-24T00:41:33.141Z,0
2017-03-24T00:42:55.607Z,0
2017-03-24T00:44:17.754Z,0
2017-03-24T00:45:40.037Z,0
2017-03-24T00:47:02.227Z,0
2017-03-24T00:48:24.673Z,0
2017-03-24T00:49:46.815Z,0
2017-03-24T00:51:09.346Z,0
2017-03-24T00:52:31.473Z,0
2017-03-24T00:53:53.707Z,0
2017-03-24T00:55:15.578Z,0
2017-03-24T00:56:38.048Z,0
2017-03-24T00:58:00.257Z,0
2017-03-24T00:59:22.693Z,0
2017-03-24T01:00:44.508Z,0
2017-03-24T01:02:06.606Z,0
2017-03-24T01:03:29.047Z,0
2017-03-24T01:04:50.877Z,0
2017-03-24T01:06:13.108Z,0
2017-03-24T01:07:35.488Z,0
2017-03-24T01:08:57.327Z,0
2017-03-24T01:10:19.456Z,0
2017-03-24T01:11:41.979Z,0
2017-03-24T01:13:03.480Z,0
2017-03-24T01:14:25.628Z,0
2017-03-24T01:15:48.054Z,0
2017-03-24T01:17:10.185Z,0
2017-03-24T01:18:32.238Z,0
2017-03-24T01:19:54.396Z,0
2017-03-24T01:21:16.519Z,0
2017-03-24T01:22:38.699Z,0
2017-03-24T01:24:01.297Z,0
2017-03-24T01:25:23.448Z,0
2017-03-24T01:26:45.662Z,0
2017-03-24T01:28:07.804Z,0
2017-03-24T01:29:30.053Z,0
2017-03-24T01:30:51.886Z,0
2017-03-24T01:32:14.018Z,0
2017-03-24T01:33:36.262Z,0
2017-03-24T01:34:58.767Z,0
2017-03-24T01:36:20.910Z,0
2017-03-24T01:37:42.712Z,0
2017-03-24T01:39:05.205Z,0
2017-03-24T01:40:27.958Z,0
2017-03-24T01:41:49.459Z,0
2017-03-24T01:43:11.615Z,0
2017-03-24T01:44:33.757Z,0
2017-03-24T01:45:56.185Z,0
2017-03-24T01:47:17.735Z,0
2017-03-24T01:48:39.559Z,0
2017-03-24T01:50:01.427Z,0
2017-03-24T01:51:24.179Z,0
2017-03-24T01:52:46.189Z,0
2017-03-24T01:54:07.722Z,0
2017-03-24T01:55:29.865Z,0
2017-03-24T01:56:52.290Z,0
2017-03-24T01:58:14.745Z,0
2017-03-24T01:59:36.259Z,0
2017-03-24T02:00:58.629Z,0
2017-03-24T02:02:20.854Z,0
2017-03-24T02:03:42.678Z,0
2017-03-24T02:05:05.202Z,0
2017-03-24T02:06:27.068Z,0
2017-03-24T02:07:49.248Z,0
2017-03-24T02:09:11.129Z,0
2017-03-24T02:10:32.619Z,0
2017-03-24T02:11:54.741Z,0
2017-03-24T02:13:16.795Z,0
2017-03-24T02:14:38.913Z,0
2017-03-24T02:16:00.758Z,0
2017-03-24T02:17:22.585Z,0
2017-03-24T02:18:45.225Z,0
2017-03-24T02:20:07.364Z,0
2017-03-24T02:21:29.194Z,0
2017-03-24T02:22:51.338Z,0
2017-03-24T02:24:13.804Z,0
2017-03-24T02:25:35.608Z,0
2017-03-24T02:26:57.139Z,0
2017-03-24T02:28:19.607Z,0
2017-03-24T02:29:42.271Z,0
2017-03-24T02:31:03.467Z,0
2017-03-24T02:32:24.659Z,0
2017-03-24T02:33:46.484Z,0
2017-03-24T02:35:08.715Z,0
2017-03-24T02:36:31.468Z,0
2017-03-24T02:37:53.598Z,0
2017-03-24T02:39:16.056Z,0
2017-03-24T02:40:37.884Z,0
2017-03-24T02:41:59.683Z,0
2017-03-24T02:43:22.226Z,0
2017-03-24T02:44:44.104Z,0
2017-03-24T02:46:06.314Z,0
2017-03-24T02:47:27.507Z,0
2017-03-24T02:48:49.381Z,0
2017-03-24T02:50:11.551Z,0
2017-03-24T02:51:33.976Z,0
2017-03-24T02:52:55.148Z,0
2017-03-24T02:54:17.610Z,0
2017-03-24T02:55:39.729Z,0
2017-03-24T02:57:02.138Z,0
2017-03-24T02:58:23.968Z,0
2017-03-24T02:59:45.772Z,0
2017-03-24T03:01:07.917Z,0
2017-03-24T03:02:30.137Z,0
2017-03-24T03:03:52.494Z,0
2017-03-24T03:05:14.614Z,0
2017-03-24T03:06:37.090Z,0
2017-03-24T03:07:59.203Z,0
2017-03-24T03:09:21.110Z,0
2017-03-24T03:10:43.247Z,0
2017-03-24T03:12:05.407Z,0
2017-03-24T03:13:27.775Z,0
2017-03-24T03:14:50.037Z,0
2017-03-24T03:16:12.594Z,0
2017-03-24T03:17:35.121Z,0
2017-03-24T03:18:57.556Z,0
2017-03-24T03:20:19.377Z,0
2017-03-24T03:21:41.698Z,0
2017-03-24T03:23:03.815Z,0
2017-03-24T03:24:25.938Z,0
2017-03-24T03:25:47.748Z,0
2017-03-24T03:27:09.896Z,0
2017-03-24T03:28:31.827Z,0
2017-03-24T03:29:54.057Z,0
2017-03-24T03:31:16.512Z,0
2017-03-24T03:32:38.639Z,0
2017-03-24T03:34:00.788Z,0
2017-03-24T03:35:23.233Z,0
2017-03-24T03:36:44.751Z,0
2017-03-24T03:38:06.879Z,0
2017-03-24T03:39:29.327Z,0
2017-03-24T03:40:51.797Z,0
2017-03-24T03:42:13.810Z,0
2017-03-24T03:43:35.707Z,0
2017-03-24T03:44:58.196Z,0
2017-03-24T03:46:20.927Z,0
2017-03-24T03:47:42.762Z,0
2017-03-24T03:49:04.897Z,0
2017-03-24T03:50:27.126Z,0
2017-03-24T03:51:48.913Z,0
2017-03-24T03:53:11.375Z,0
2017-03-24T03:54:33.240Z,0
2017-03-24T03:55:54.751Z,0
2017-03-24T03:57:16.539Z,0
2017-03-24T03:58:38.456Z,0
2017-03-24T04:00:00.578Z,0
2017-03-24T04:01:22.695Z,0
2017-03-24T04:02:44.566Z,0
2017-03-24T04:04:06.187Z,0
2017-03-24T04:05:28.019Z,0
2017-03-24T04:06:50.136Z,0
2017-03-24T04:08:12.244Z,0
2017-03-24T04:09:34.736Z,0
2017-03-24T04:10:56.556Z,0
2017-03-24T04:12:18.716Z,0
2017-03-24T04:13:41.517Z,0
2017-03-24T04:15:03.633Z,0
2017-03-24T04:16:25.120Z,0
2017-03-24T04:17:46.636Z,0
2017-03-24T04:19:08.740Z,0
2017-03-24T04:20:30.928Z,0
2017-03-24T04:21:53.679Z,0
2017-03-24T04:23:16.149Z,0
2017-03-24T04:24:38.730Z,0
2017-03-24T04:26:00.864Z,0
2017-03-24T04:27:22.852Z,0
2017-03-24T04:28:45.341Z,0
2017-03-24T04:30:07.768Z,0
2017-03-24T04:31:29.930Z,0
2017-03-24T04:32:52.076Z,0
2017-03-24T04:34:14.208Z,0
2017-03-24T04:35:36.907Z,0
2017-03-24T04:36:59.039Z,0
2017-03-24T04:38:21.482Z,0
2017-03-24T04:39:43.458Z,0
2017-03-24T04:41:05.266Z,0
2017-03-24T04:42:27.407Z,0
2017-03-24T04:43:49.884Z,0
2017-03-24T04:45:12.350Z,0
2017-03-24T04:46:35.144Z,0
2017-03-24T04:47:57.625Z,0
2017-03-24T04:49:19.746Z,0
2017-03-24T04:50:42.118Z,0
2017-03-24T04:52:04.982Z,0
2017-03-24T04:53:27.423Z,0
2017-03-24T04:54:49.575Z,0
2017-03-24T04:56:11.722Z,0
2017-03-24T04:57:33.382Z,0
2017-03-24T04:58:54.577Z,0
2017-03-24T05:00:16.874Z,0
2017-03-24T05:01:38.698Z,0
2017-03-24T05:03:00.959Z,0
2017-03-24T05:04:23.433Z,0
2017-03-24T05:05:45.268Z,0
2017-03-24T05:07:06.505Z,0
2017-03-24T05:08:28.981Z,0
2017-03-24T05:09:50.904Z,5
2017-03-24T05:11:13.042Z,5
2017-03-24T05:12:34.866Z,5
2017-03-24T05:13:57.379Z,5
2017-03-24T05:15:20.029Z,5
2017-03-24T05:16:41.541Z,10
2017-03-24T05:18:03.737Z,10
2017-03-24T05:19:25.856Z,10
2017-03-24T05:20:48.053Z,10
2017-03-24T05:22:10.494Z,15
2017-03-24T05:23:32.298Z,15
2017-03-24T05:24:54.850Z,15
2017-03-24T05:26:16.986Z,20
2017-03-24T05:27:39.437Z,20
2017-03-24T05:29:01.313Z,20
2017-03-24T05:30:23.738Z,25
2017-03-24T05:31:46.277Z,25
2017-03-24T05:33:08.738Z,25
2017-03-24T05:34:31.127Z,30
2017-03-24T05:35:53.468Z,30
2017-03-24T05:37:15.881Z,35
2017-03-24T05:38:38.081Z,35
2017-03-24T05:39:59.988Z,35
2017-03-24T05:41:22.409Z,40
2017-03-24T05:42:44.659Z,40
2017-03-24T05:44:06.800Z,45
2017-03-24T05:45:29.264Z,45
2017-03-24T05:46:52.025Z,45
2017-03-24T05:48:14.168Z,50
2017-03-24T05:49:36.376Z,50
2017-03-24T05:50:58.484Z,55
2017-03-24T05:52:21.185Z,55
2017-03-24T05:53:43.344Z,60
2017-03-24T05:55:05.150Z,60
2017-03-24T05:56:27.318Z,60
2017-03-24T05:57:50.249Z,65
2017-03-24T05:59:12.170Z,65
2017-03-24T06:00:33.709Z,70
2017-03-24T06:01:55.848Z,70
2017-03-24T06:03:18.290Z,75
2017-03-24T06:04:40.439Z,85
2017-03-24T06:06:02.968Z,95
2017-03-24T06:07:25.141Z,110
2017-03-24T06:08:48.595Z,155
2017-03-24T06:10:10.745Z,195
2017-03-24T06:11:32.898Z,200
2017-03-24T06:12:55.093Z,205
2017-03-24T06:14:17.853Z,205
2017-03-24T06:15:40.293Z,210
2017-03-24T06:17:02.454Z,210
2017-03-24T06:18:24.275Z,210
2017-03-24T06:19:46.790Z,215
2017-03-24T06:21:08.951Z,215
2017-03-24T06:22:31.427Z,220
2017-03-24T06:23:53.444Z,225
2017-03-24T06:25:16.157Z,225
2017-03-24T06:26:38.625Z,225
2017-03-24T06:28:01.095Z,235
2017-03-24T06:29:23.226Z,235
2017-03-24T06:30:45.687Z,240
2017-03-24T06:32:07.495Z,240
2017-03-24T06:33:29.759Z,245
2017-03-24T06:34:51.598Z,245
2017-03-24T06:36:13.459Z,250
2017-03-24T06:37:35.633Z,255
2017-03-24T06:38:58.042Z,260
2017-03-24T06:40:19.574Z,265
2017-03-24T06:41:42.338Z,265
2017-03-24T06:43:04.821Z,270
2017-03-24T06:44:26.649Z,275
2017-03-24T06:45:48.531Z,280
2017-03-24T06:47:10.934Z,280
2017-03-24T06:48:33.117Z,280
2017-03-24T06:49:55.375Z,280
2017-03-24T06:51:17.518Z,285
2017-03-24T06:52:39.591Z,285
2017-03-24T06:54:01.746Z,290
2017-03-24T06:55:24.336Z,285
2017-03-24T06:56:46.544Z,285
2017-03-24T06:58:08.834Z,285
2017-03-24T06:59:31.645Z,290
2017-03-24T07:00:54.136Z,290
2017-03-24T07:02:16.347Z,300
2017-03-24T07:03:38.793Z,320
2017-03-24T07:05:00.363Z,295
2017-03-24T07:06:22.604Z,275
2017-03-24T07:07:44.355Z,270
2017-03-24T07:09:06.577Z,270
2017-03-24T07:10:28.407Z,270
2017-03-24T07:11:50.845Z,270
2017-03-24T07:13:12.970Z,265
2017-03-24T07:14:35.144Z,265
2017-03-24T07:15:57.345Z,260
2017-03-24T07:17:18.949Z,255
2017-03-24T07:18:41.551Z,255
2017-03-24T07:20:03.695Z,255
2017-03-24T07:21:26.256Z,260
2017-03-24T07:22:48.391Z,260
2017-03-24T07:24:09.894Z,255
2017-03-24T07:25:32.115Z,255
2017-03-24T07:26:53.616Z,250
2017-03-24T07:28:16.268Z,250
2017-03-24T07:29:38.804Z,245
2017-03-24T07:31:01.630Z,240
2017-03-24T07:32:23.812Z,240
2017-03-24T07:33:46.261Z,235
2017-03-24T07:35:08.090Z,235
2017-03-24T07:36:30.267Z,230
2017-03-24T07:37:52.748Z,225
2017-03-24T07:39:14.250Z,220
2017-03-24T07:40:36.095Z,220
2017-03-24T07:41:58.336Z,215
2017-03-24T07:43:20.796Z,205
2017-03-24T07:44:42.858Z,185
2017-03-24T07:46:05.009Z,160
2017-03-24T07:47:27.124Z,145
2017-03-24T07:48:49.439Z,145
2017-03-24T07:50:11.010Z,140
2017-03-24T07:51:32.875Z,140
2017-03-24T07:52:55.670Z,140
2017-03-24T07:54:17.237Z,145
2017-03-24T07:55:39.162Z,150
2017-03-24T07:57:01.017Z,145
2017-03-24T07:58:23.506Z,140
2017-03-24T07:59:45.043Z,145
2017-03-24T08:01:07.223Z,145
2017-03-24T08:02:29.026Z,140
2017-03-24T08:03:52.006Z,140
2017-03-24T08:05:14.479Z,145
2017-03-24T08:06:36.338Z,145
2017-03-24T08:07:57.873Z,145
2017-03-24T08:09:19.610Z,150
2017-03-24T08:10:41.531Z,150
2017-03-24T08:12:03.331Z,150
2017-03-24T08:13:25.156Z,150
2017-03-24T08:14:47.853Z,150
2017-03-24T08:16:10.114Z,150
2017-03-24T08:17:32.268Z,150
2017-03-24T08:18:53.816Z,155
2017-03-24T08:20:16.559Z,155
2017-03-24T08:21:39.034Z,155
2017-03-24T08:23:01.502Z,155
2017-03-24T08:24:23.353Z,155
2017-03-24T08:25:45.752Z,155
2017-03-24T08:27:08.204Z,155
2017-03-24T08:28:30.476Z,155
2017-03-24T08:29:51.964Z,155
2017-03-24T08:31:14.096Z,155
2017-03-24T08:32:36.561Z,155
2017-03-24T08:33:58.471Z,150
2017-03-24T08:35:19.677Z,150
2017-03-24T08:36:42.421Z,155
2017-03-24T08:38:04.575Z,150
2017-03-24T08:39:27.055Z,155
2017-03-24T08:40:49.455Z,155
2017-03-24T08:42:12.279Z,155
2017-03-24T08:43:34.812Z,155
2017-03-24T08:44:57.117Z,155
2017-03-24T08:46:19.560Z,155
2017-03-24T08:47:42.563Z,155
2017-03-24T08:49:04.381Z,155
2017-03-24T08:50:25.878Z,155
2017-03-24T08:51:47.765Z,155
2017-03-24T08:53:10.079Z,155
2017-03-24T08:54:32.428Z,155
2017-03-24T08:55:54.872Z,155
2017-03-24T08:57:16.753Z,155
2017-03-24T08:58:38.860Z,155
2017-03-24T09:00:00.981Z,155
2017-03-24T09:01:22.779Z,160
2017-03-24T09:02:44.904Z,160
2017-03-24T09:04:07.648Z,160
2017-03-24T09:05:29.199Z,160
2017-03-24T09:06:51.334Z,160
2017-03-24T09:08:13.458Z,160
2017-03-24T09:09:35.911Z,160
2017-03-24T09:10:57.864Z,155
2017-03-24T09:12:19.677Z,155
2017-03-24T09:13:41.531Z,155
2017-03-24T09:15:04.325Z,155
2017-03-24T09:16:26.873Z,155
2017-03-24T09:17:49.338Z,155
2017-03-24T09:19:11.489Z,155
2017-03-24T09:20:33.962Z,160
2017-03-24T09:21:56.555Z,160
2017-03-24T09:23:18.718Z,160
2017-03-24T09:24:40.860Z,165
2017-03-24T09:26:03.373Z,165
2017-03-24T09:27:25.947Z,165
2017-03-24T09:28:48.413Z,170
2017-03-24T09:30:10.246Z,170
2017-03-24T09:31:32.922Z,170
2017-03-24T09:32:55.405Z,170
2017-03-24T09:34:17.935Z,175
2017-03-24T09:35:40.172Z,170
2017-03-24T09:37:02.679Z,170
2017-03-24T09:38:24.926Z,170
2017-03-24T09:39:47.017Z,170
2017-03-24T09:41:09.705Z,170
2017-03-24T09:42:32.151Z,170
2017-03-24T09:43:54.532Z,170
2017-03-24T09:45:17.151Z,170
2017-03-24T09:46:38.656Z,170
2017-03-24T09:48:01.074Z,170
2017-03-24T09:49:23.213Z,170
2017-03-24T09:50:45.081Z,170
2017-03-24T09:52:07.221Z,170
2017-03-24T09:53:29.381Z,170
2017-03-24T09:54:51.220Z,170
2017-03-24T09:56:12.740Z,175
2017-03-24T09:57:34.316Z,170
2017-03-24T09:58:56.822Z,175
2017-03-24T10:00:19.322Z,175
2017-03-24T10:01:41.902Z,175
2017-03-24T10:03:04.059Z,180
2017-03-24T10:04:26.986Z,180
2017-03-24T10:05:49.050Z,180
2017-03-24T10:07:11.488Z,180
2017-03-24T10:08:33.280Z,180
2017-03-24T10:09:55.345Z,180
2017-03-24T10:11:17.472Z,180
2017-03-24T10:12:39.596Z,185
2017-03-24T10:14:02.205Z,180
2017-03-24T10:15:24.967Z,180
2017-03-24T10:16:47.457Z,185
2017-03-24T10:18:09.929Z,180
2017-03-24T10:19:31.789Z,180
2017-03-24T10:20:54.591Z,180
2017-03-24T10:22:16.714Z,180
2017-03-24T10:23:38.915Z,185
2017-03-24T10:25:01.377Z,185
2017-03-24T10:26:24.143Z,190
2017-03-24T10:27:45.967Z,185
2017-03-24T10:29:08.176Z,185
2017-03-24T10:30:30.328Z,190
2017-03-24T10:31:52.777Z,185
2017-03-24T10:33:15.323Z,185
2017-03-24T10:34:37.514Z,190
2017-03-24T10:35:59.337Z,190
2017-03-24T10:37:21.812Z,190
2017-03-24T10:38:44.305Z,195
2017-03-24T10:40:06.421Z,190
2017-03-24T10:41:28.564Z,190
2017-03-24T10:42:51.002Z,195
2017-03-24T10:44:12.870Z,195
2017-03-24T10:45:35.114Z,195
2017-03-24T10:46:56.965Z,195
2017-03-24T10:48:19.124Z,195
2017-03-24T10:49:40.967Z,195
2017-03-24T10:51:03.109Z,195
2017-03-24T10:52:25.247Z,200
2017-03-24T10:53:46.675Z,200
2017-03-24T10:55:08.630Z,200
2017-03-24T10:56:30.155Z,205
2017-03-24T10:57:52.616Z,200
2017-03-24T10:59:47.363Z,200
2017-03-24T11:01:09.189Z,200
2017-03-24T11:02:31.368Z,200
2017-03-24T11:03:54.100Z,200
2017-03-24T11:05:16.640Z,195
2017-03-24T11:06:39.118Z,195
2017-03-24T11:08:01.281Z,195
2017-03-24T11:09:23.736Z,195
2017-03-24T11:10:46.336Z,195
2017-03-24T11:12:08.577Z,195
2017-03-24T11:13:31.189Z,195
2017-03-24T11:14:54.108Z,195
2017-03-24T11:16:16.237Z,195
2017-03-24T11:17:38.447Z,195
2017-03-24T11:19:00.269Z,200
2017-03-24T11:20:22.756Z,200
2017-03-24T11:21:45.230Z,200
2017-03-24T11:23:07.385Z,205
2017-03-24T11:24:28.897Z,205
2017-03-24T11:25:51.096Z,205
2017-03-24T11:27:12.902Z,205
2017-03-24T11:28:35.127Z,205
2017-03-24T11:29:57.278Z,205
2017-03-24T11:31:20.058Z,205
2017-03-24T11:32:41.984Z,200
2017-03-24T11:34:03.805Z,200
2017-03-24T11:35:25.377Z,200
2017-03-24T11:36:47.766Z,195
2017-03-24T11:38:09.906Z,195
2017-03-24T11:39:32.360Z,195
2017-03-24T11:40:54.260Z,195
2017-03-24T11:42:16.696Z,190
2017-03-24T11:43:38.533Z,190
2017-03-24T11:45:00.345Z,185
2017-03-24T11:46:22.814Z,185
2017-03-24T11:47:45.516Z,185
2017-03-24T11:49:07.974Z,185
2017-03-24T11:50:29.786Z,185
2017-03-24T11:51:51.937Z,190
2017-03-24T11:53:14.429Z,185
2017-03-24T11:54:36.887Z,185
2017-03-24T11:55:59.396Z,185
2017-03-24T11:57:21.846Z,185
2017-03-24T11:58:44.567Z,185
2017-03-24T12:00:06.418Z,185
2017-03-24T12:01:28.881Z,185
2017-03-24T12:02:51.172Z,185
2017-03-24T12:04:13.361Z,185
2017-03-24T12:05:35.628Z,185
2017-03-24T12:06:57.797Z,190
2017-03-24T12:08:19.937Z,190
2017-03-24T12:09:42.140Z,190
2017-03-24T12:11:04.299Z,195
2017-03-24T12:12:26.494Z,195
2017-03-24T12:13:49.053Z,195
2017-03-24T12:15:11.483Z,200
2017-03-24T12:16:33.979Z,200
2017-03-24T12:17:56.488Z,200
2017-03-24T12:19:19.654Z,205
2017-03-24T12:20:42.398Z,205
2017-03-24T12:22:04.909Z,205
2017-03-24T12:23:27.050Z,205
2017-03-24T12:24:49.538Z,205
2017-03-24T12:26:12.376Z,200
2017-03-24T12:27:34.103Z,195
2017-03-24T12:28:56.256Z,190
2017-03-24T12:30:18.100Z,190
2017-03-24T12:31:40.554Z,185
2017-03-24T12:33:03.125Z,185
2017-03-24T12:34:25.603Z,185
2017-03-24T12:35:47.829Z,180
2017-03-24T12:37:10.269Z,180
2017-03-24T12:38:32.846Z,175
2017-03-24T12:39:55.310Z,170
2017-03-24T12:41:17.476Z,165
2017-03-24T12:42:40.338Z,165
2017-03-24T12:44:02.847Z,165
2017-03-24T12:45:25.436Z,165
2017-03-24T12:46:47.886Z,165
2017-03-24T12:48:10.257Z,165
2017-03-24T12:49:32.417Z,165
2017-03-24T12:50:54.567Z,165
2017-03-24T12:52:16.623Z,165
2017-03-24T12:53:39.385Z,160
2017-03-24T12:55:01.258Z,160
2017-03-24T12:56:23.726Z,160
2017-03-24T12:57:46.173Z,160
2017-03-24T12:59:08.663Z,155
2017-03-24T13:00:30.949Z,160
2017-03-24T13:01:53.146Z,155
2017-03-24T13:03:15.719Z,155
2017-03-24T13:04:38.486Z,155
2017-03-24T13:06:00.806Z,155
2017-03-24T13:07:23.417Z,150
2017-03-24T13:08:46.027Z,150
2017-03-24T13:10:08.864Z,150
2017-03-24T13:11:31.324Z,150
2017-03-24T13:12:53.831Z,150
2017-03-24T13:14:15.988Z,150
2017-03-24T13:15:38.087Z,150
2017-03-24T13:17:00.245Z,150
2017-03-24T13:18:22.469Z,150
2017-03-24T13:19:44.957Z,150
2017-03-24T13:21:07.076Z,150
2017-03-24T13:22:29.227Z,150
2017-03-24T13:23:51.103Z,150
2017-03-24T13:25:13.656Z,150
2017-03-24T13:26:36.454Z,150
2017-03-24T13:27:58.596Z,150
2017-03-24T13:29:20.549Z,150
2017-03-24T13:30:42.729Z,150
2017-03-24T13:32:05.248Z,150
2017-03-24T13:33:27.491Z,150
2017-03-24T13:34:49.982Z,150
2017-03-24T13:36:12.139Z,150
2017-03-24T13:37:34.577Z,145
2017-03-24T13:38:57.161Z,145
2017-03-24T13:40:18.749Z,145
2017-03-24T13:41:41.304Z,145
2017-03-24T13:43:03.710Z,140
2017-03-24T13:44:25.868Z,145
2017-03-24T13:45:48.339Z,145
2017-03-24T13:47:10.815Z,145
2017-03-24T13:48:33.299Z,145
2017-03-24T13:49:55.149Z,145
2017-03-24T13:51:17.323Z,145
2017-03-24T13:52:39.587Z,145
2017-03-24T13:54:02.366Z,145
2017-03-24T13:55:24.837Z,145
2017-03-24T13:56:47.323Z,145
2017-03-24T13:58:09.828Z,145
2017-03-24T13:59:32.623Z,145
2017-03-24T14:00:54.822Z,145
2017-03-24T14:02:17.344Z,140
2017-03-24T14:03:39.228Z,140
2017-03-24T14:05:01.666Z,140
2017-03-24T14:06:24.169Z,145
2017-03-24T14:07:46.639Z,145
2017-03-24T14:09:09.141Z,145
2017-03-24T14:10:31.989Z,145
2017-03-24T14:11:54.469Z,145
2017-03-24T14:13:16.357Z,145
2017-03-24T14:14:38.474Z,140
2017-03-24T14:16:01.324Z,140
2017-03-24T14:17:23.884Z,140
2017-03-24T14:18:46.297Z,140
2017-03-24T14:20:08.264Z,140
2017-03-24T14:21:31.108Z,140
2017-03-24T14:22:53.549Z,140
2017-03-24T14:24:16.028Z,140
2017-03-24T14:25:38.167Z,140
2017-03-24T14:27:00.348Z,140
2017-03-24T14:28:22.869Z,140
2017-03-24T14:29:45.075Z,140
2017-03-24T14:31:06.920Z,140
2017-03-24T14:32:29.687Z,140
2017-03-24T14:33:51.552Z,140
2017-03-24T14:35:14.032Z,140
2017-03-24T14:36:36.506Z,140
2017-03-24T14:37:59.057Z,140
2017-03-24T14:39:21.362Z,140
2017-03-24T14:40:43.516Z,140
2017-03-24T14:42:05.737Z,140
2017-03-24T14:43:28.495Z,140
2017-03-24T14:44:50.325Z,140
2017-03-24T14:46:12.871Z,140
2017-03-24T14:47:35.032Z,140
2017-03-24T14:48:57.180Z,140
2017-03-24T14:50:18.735Z,140
2017-03-24T14:51:40.947Z,140
2017-03-24T14:53:03.487Z,140
2017-03-24T14:54:26.308Z,145
2017-03-24T14:55:48.465Z,145
2017-03-24T14:57:10.440Z,145
2017-03-24T14:58:32.926Z,145
2017-03-24T14:59:55.448Z,145
2017-03-24T15:01:18.074Z,145
2017-03-24T15:02:40.559Z,145
2017-03-24T15:04:02.867Z,145
2017-03-24T15:05:25.726Z,140
2017-03-24T15:06:47.868Z,140
2017-03-24T15:08:10.059Z,140
2017-03-24T15:09:32.602Z,135
2017-03-24T15:10:55.096Z,135
2017-03-24T15:12:17.287Z,130
2017-03-24T15:13:39.594Z,135
2017-03-24T15:15:02.307Z,135
2017-03-24T15:16:24.874Z,135
2017-03-24T15:17:47.313Z,135
2017-03-24T15:19:09.477Z,135
2017-03-24T15:20:32.097Z,135
2017-03-24T15:21:54.539Z,135
2017-03-24T15:23:17.006Z,130
2017-03-24T15:24:39.216Z,130
2017-03-24T15:26:01.376Z,130
2017-03-24T15:27:23.817Z,130
2017-03-24T15:28:45.989Z,125
2017-03-24T15:30:08.465Z,125
2017-03-24T15:31:30.659Z,125
2017-03-24T15:32:53.493Z,125
2017-03-24T15:34:15.337Z,125
2017-03-24T15:35:38.037Z,125
2017-03-24T15:37:00.191Z,125
2017-03-24T15:38:22.608Z,125
2017-03-24T15:39:44.466Z,120
2017-03-24T15:41:06.721Z,120
2017-03-24T15:42:28.670Z,120
2017-03-24T15:43:51.409Z,120
2017-03-24T15:45:13.589Z,120
2017-03-24T15:46:35.736Z,120
2017-03-24T15:47:57.945Z,115
2017-03-24T15:49:20.748Z,115
2017-03-24T15:50:42.866Z,115
2017-03-24T15:52:04.699Z,115
2017-03-24T15:53:26.894Z,115
2017-03-24T15:54:48.814Z,115
2017-03-24T15:56:11.519Z,115
2017-03-24T15:57:33.984Z,115
2017-03-24T15:58:56.581Z,110
2017-03-24T16:00:19.001Z,110
2017-03-24T16:01:41.377Z,110
2017-03-24T16:03:03.902Z,105
2017-03-24T16:04:26.184Z,105
2017-03-24T16:05:48.596Z,105
2017-03-24T16:07:10.812Z,105
2017-03-24T16:08:33.014Z,100
2017-03-24T16:09:55.169Z,100
2017-03-24T16:11:17.767Z,100
2017-03-24T16:12:39.826Z,100
2017-03-24T16:14:01.910Z,100
2017-03-24T16:15:23.803Z,95
2017-03-24T16:16:46.220Z,95
2017-03-24T16:18:08.397Z,95
2017-03-24T16:19:30.251Z,95
2017-03-24T16:20:52.423Z,95
2017-03-24T16:22:15.020Z,95
2017-03-24T16:23:37.895Z,95
2017-03-24T16:25:00.094Z,90
2017-03-24T16:26:21.963Z,90
2017-03-24T16:27:44.418Z,90
2017-03-24T16:29:06.891Z,85
2017-03-24T16:30:29.467Z,85
2017-03-24T16:31:51.337Z,85
2017-03-24T16:33:13.503Z,85
2017-03-24T16:34:35.997Z,85
2017-03-24T16:35:57.838Z,85
2017-03-24T16:37:19.677Z,80
2017-03-24T16:38:41.934Z,80
2017-03-24T16:40:04.113Z,80
2017-03-24T16:41:26.647Z,75
2017-03-24T16:42:49.131Z,80
2017-03-24T16:44:10.929Z,80
2017-03-24T16:45:32.947Z,75
2017-03-24T16:46:55.144Z,75
2017-03-24T16:48:17.860Z,75
2017-03-24T16:49:40.648Z,75
2017-03-24T16:51:03.198Z,70
2017-03-24T16:52:25.409Z,70
2017-03-24T16:53:46.947Z,70
2017-03-24T16:55:09.406Z,65
2017-03-24T16:56:31.909Z,65
2017-03-24T16:57:54.196Z,65
2017-03-24T16:59:16.732Z,65
2017-03-24T17:00:39.356Z,60
2017-03-24T17:02:01.825Z,60
2017-03-24T17:03:24.599Z,55
2017-03-24T17:04:46.788Z,55
2017-03-24T17:06:09.037Z,50
2017-03-24T17:07:30.896Z,50
2017-03-24T17:08:53.221Z,45
2017-03-24T17:10:15.709Z,45
2017-03-24T17:11:37.912Z,40
2017-03-24T17:13:00.358Z,40
2017-03-24T17:14:22.526Z,35
2017-03-24T17:15:44.678Z,35
2017-03-24T17:17:07.555Z,35
2017-03-24T17:18:30.018Z,35
2017-03-24T17:19:51.870Z,30
2017-03-24T17:21:14.009Z,30
2017-03-24T17:22:36.746Z,30
2017-03-24T17:23:58.899Z,25
2017-03-24T17:25:21.410Z,25
2017-03-24T17:26:44.331Z,25
2017-03-24T17:28:06.475Z,20
2017-03-24T17:29:28.996Z,20
2017-03-24T17:30:51.117Z,20
2017-03-24T17:32:13.713Z,15
2017-03-24T17:33:35.968Z,15
2017-03-24T17:34:58.635Z,15
2017-03-24T17:36:21.118Z,10
2017-03-24T17:37:42.995Z,10
2017-03-24T17:39:05.418Z,10
2017-03-24T17:40:27.910Z,10
2017-03-24T17:41:50.602Z,5
2017-03-24T17:43:12.437Z,5
2017-03-24T17:44:34.704Z,5
2017-03-24T17:45:57.198Z,5
2017-03-24T17:47:19.400Z,5
2017-03-24T17:48:41.984Z,5
2017-03-24T17:50:36.868Z,5
2017-03-24T17:51:59.347Z,0
2017-03-24T17:53:21.867Z,0
2017-03-24T17:54:44.602Z,0
2017-03-24T17:56:06.766Z,0
2017-03-24T17:57:29.124Z,0
2017-03-24T17:58:51.823Z,0
2017-03-24T18:00:14.288Z,0
2017-03-24T18:01:36.805Z,0
2017-03-24T18:02:58.935Z,0
2017-03-24T18:04:21.408Z,0
2017-03-24T18:05:44.206Z,0
2017-03-24T18:07:06.412Z,0
2017-03-24T18:08:28.279Z,0
2017-03-24T18:09:50.535Z,0
2017-03-24T18:11:13.005Z,0
2017-03-24T18:12:35.186Z,0
2017-03-24T18:13:57.733Z,0
2017-03-24T18:15:19.897Z,0
2017-03-24T18:16:42.035Z,0
2017-03-24T18:18:36.505Z,0
2017-03-24T18:19:58.663Z,0
2017-03-24T18:21:21.174Z,0
2017-03-24T18:22:43.357Z,0
2017-03-24T18:24:05.617Z,0
2017-03-24T18:25:27.780Z,0
2017-03-24T18:26:50.518Z,0
2017-03-24T18:28:13.057Z,0
2017-03-24T18:29:35.256Z,0
2017-03-24T18:30:57.782Z,0
2017-03-24T18:32:20.866Z,0
2017-03-24T18:33:43.019Z,0
2017-03-24T18:35:05.170Z,0
2017-03-24T18:36:27.648Z,0
2017-03-24T18:37:50.428Z,0
2017-03-24T18:39:12.995Z,0
2017-03-24T18:40:34.846Z,0
2017-03-24T18:41:57.397Z,0
2017-03-24T18:43:20.305Z,0
2017-03-24T18:44:42.799Z,0
2017-03-24T18:46:04.965Z,0
2017-03-24T18:47:27.418Z,0
2017-03-24T18:48:50.256Z,0
2017-03-24T18:50:12.755Z,0
2017-03-24T18:51:35.248Z,0
2017-03-24T18:52:57.460Z,0
2017-03-24T18:54:20.327Z,0
2017-03-24T18:55:42.619Z,0
2017-03-24T18:57:05.135Z,0
2017-03-24T18:58:27.665Z,0
2017-03-24T18:59:50.494Z,0
2017-03-24T19:01:13.007Z,0
2017-03-24T19:02:35.493Z,0
2017-03-24T19:03:57.994Z,0
2017-03-24T19:05:20.565Z,0
2017-03-24T19:06:43.187Z,0
2017-03-24T19:08:05.681Z,0
2017-03-24T19:09:28.174Z,0
2017-03-24T19:10:50.990Z,0
2017-03-24T19:12:13.498Z,0
2017-03-24T19:13:36.005Z,0
2017-03-24T19:14:58.474Z,0
2017-03-24T19:16:20.925Z,0
2017-03-24T19:17:43.120Z,0
2017-03-24T19:19:05.801Z,0
2017-03-24T19:20:28.279Z,0
2017-03-24T19:21:50.840Z,0
2017-03-24T19:23:13.078Z,0
2017-03-24T19:24:34.925Z,0
2017-03-24T19:25:57.446Z,0
2017-03-24T19:27:20.334Z,0
2017-03-24T19:28:42.828Z,0